Flight Track Log - Related Links

Times and Time Zones

All times are in EDT time to prevent confusion due to time zone crossing. See the UAL395 flight status page for this flight to view local times or setup timezone preferences in your user account.

Time Position Orientation Groundspeed Altitude Reporting Facility
EDT Latitude Longitude Course Direction KTS MPH feet Rate Location/Type
Mon 03:41:50 PM 38.9500 -77.5167 297° West 163 188 1,700  Level Potomac TRACON
Mon 03:42:56 PM 38.9833 -77.6000 297° West 242 278 3,800 1,650 Climbing Potomac TRACON
Mon 03:43:50 PM 39.0000 -77.6667 288° West 282 325 5,000 579 Climbing Potomac TRACON
Mon 03:44:50 PM 39.0333 -77.7500 297° West 265 305 4,900 -50 Descending Potomac TRACON
Mon 03:45:50 PM 39.0333 -77.8333 270° West 268 308 4,900 1,250 Level Potomac TRACON
Mon 03:46:50 PM 39.0167 -77.9333 258° West 269 310 7,400 2,550 Climbing Potomac TRACON
Mon 03:47:50 PM 39.0000 -78.0333 258° West 270 311 10,000 681 Climbing Potomac TRACON
Mon 03:49:00 PM 38.9605 -78.1125 237° Southwest  Level FlightAware Approximate
Mon 03:50:39 PM 38.9572 -78.3278 270° West 322 371 10,000  Level Washington Center
Mon 03:51:42 PM 38.9631 -78.4375 274° West 322 371 10,100 1,289 Climbing Washington Center
Mon 03:52:40 PM 38.9686 -78.5553 274° West 327 376 12,600 2,695 Climbing Washington Center
Mon 03:53:40 PM 38.9739 -78.6728 273° West 332 382 15,400 2,628 Climbing Washington Center
Mon 03:54:41 PM 38.9772 -78.7906 272° West 332 382 17,900 2,218 Climbing Washington Center
Mon 03:55:39 PM 38.9819 -78.9189 273° West 344 396 19,800 1,966 Climbing Washington Center
Mon 03:56:00 PM 39.1462 -78.6244 270° West  Level Estimated
Mon 03:56:40 PM 38.9867 -79.0500 273° West 361 415 21,800  Level Washington Center
Mon 03:57:41 PM 38.9911 -79.1839 272° West 367 422 24,100 1,916 Climbing Washington Center
Mon 03:58:39 PM 38.9933 -79.3200 271° West 378 435 25,600 1,513 Climbing Washington Center
Mon 03:59:40 PM 38.9950 -79.4617 271° West 389 448 27,100 1,525 Climbing Washington Center
Mon 04:00:41 PM 39.0000 -79.6278 272° West 413 475 28,700 1,438 Climbing Washington Center
Mon 04:01:41 PM 39.0033 -79.7747 272° West 425 489 30,000 1,322 Climbing Washington Center
Mon 04:02:39 PM 39.0061 -79.9272 271° West 425 489 31,300 1,179 Climbing Washington Center
Mon 04:03:38 PM 39.0044 -80.0708 269° West 434 499 32,300 1,140 Climbing Indianapolis Center
Mon 04:04:40 PM 39.0072 -80.2361 271° West 443 510 33,600 1,161 Climbing Indianapolis Center
Mon 04:05:42 PM 39.0097 -80.3964 271° West 448 516 34,700 1,317 Climbing Indianapolis Center
Mon 04:06:43 PM 39.0269 -80.5503 278° West 446 513 36,300 1,317 Climbing Indianapolis Center
Mon 04:07:45 PM 39.0856 -80.6842 299° West 430 495 37,400 823 Climbing Indianapolis Center
Mon 04:08:47 PM 39.1450 -80.8139 301° West 425 489 38,000 290 Climbing Indianapolis Center
Mon 04:09:49 PM 39.2150 -80.9675 300° West 417 480 38,000  Level Indianapolis Center
Mon 04:10:51 PM 39.2725 -81.0983 300° West 419 482 38,000  Level Indianapolis Center
Mon 04:11:52 PM 39.3222 -81.2378 295° West 428 493 38,000  Level Indianapolis Center
Mon 04:12:54 PM 39.3675 -81.3783 293° West 427 491 38,000  Level Indianapolis Center
Mon 04:13:56 PM 39.4117 -81.5189 292° West 426 490 38,000  Level Indianapolis Center
Mon 04:14:58 PM 39.4572 -81.6600 293° West 426 490 38,000  Level Indianapolis Center
Mon 04:16:00 PM 39.5122 -81.8264 293° West 423 487 38,000  Level Indianapolis Center
Mon 04:17:01 PM 39.5625 -81.9656 295° West 426 490 38,000  Level Indianapolis Center
Mon 04:18:03 PM 39.6164 -82.1028 297° West 429 494 38,000 -48 Level Indianapolis Center
Mon 04:19:05 PM 39.6689 -82.2342 297° West 431 496 37,900  Descending Indianapolis Center
Mon 04:20:07 PM 39.7261 -82.3722 298° West 431 496 38,000 48 Climbing Indianapolis Center
Mon 04:21:09 PM 39.8006 -82.5294 302° West 433 498 38,000 -49 Level Indianapolis Center
Mon 04:22:10 PM 39.8631 -82.6642 301° West 433 498 37,900 -49 Descending Indianapolis Center
Mon 04:23:12 PM 39.9261 -82.8000 301° West 434 499 37,900  Level Indianapolis Center
Mon 04:24:14 PM 39.9883 -82.9372 301° West 437 503 37,900 48 Level Indianapolis Center
Mon 04:25:16 PM 40.0519 -83.0739 301° West 439 505 38,000 48 Climbing Indianapolis Center
Mon 04:26:18 PM 40.1133 -83.2111 300° West 438 504 38,000  Level Indianapolis Center
Mon 04:27:19 PM 40.1744 -83.3467 301° West 433 498 38,000 -439 Level Indianapolis Center
Mon 04:28:21 PM 40.2456 -83.5047 301° West 431 496 37,100 -919 Descending Indianapolis Center
Mon 04:29:23 PM 40.3067 -83.6422 300° West 434 499 36,100 -968 Descending Indianapolis Center
Mon 04:30:25 PM 40.3686 -83.7806 300° West 439 505 35,100 -968 Descending Indianapolis Center
Mon 04:31:27 PM 40.4314 -83.9225 300° West 445 512 34,100 -537 Descending Indianapolis Center
Mon 04:32:28 PM 40.4947 -84.0644 300° West 448 516 34,000 -49 Descending Indianapolis Center
Mon 04:33:30 PM 40.5572 -84.2072 300° West 449 517 34,000 -48 Level Indianapolis Center
Mon 04:34:32 PM 40.6194 -84.3503 300° West 447 514 33,900  Descending Indianapolis Center
Mon 04:35:34 PM 40.6922 -84.5189 300° West 450 518 34,000  Climbing Indianapolis Center
Mon 04:36:36 PM 40.7561 -84.6628 300° West 451 519 33,900  Descending Indianapolis Center
Mon 04:37:37 PM 40.8186 -84.8092 299° West 453 521 34,000 49 Climbing Indianapolis Center
Mon 04:38:39 PM 40.8792 -84.9542 299° West 453 521 34,000  Level Indianapolis Center
Mon 04:39:41 PM 40.9417 -85.0992 300° West 455 524 34,000  Level Indianapolis Center
Mon 04:40:42 PM 41.0111 -85.2369 304° West 452 520 34,000 -683 Level Indianapolis Center
Mon 04:41:44 PM 41.0956 -85.3642 311° West 460 529 32,600 -1,790 Descending Indianapolis Center
Mon 04:42:46 PM 41.1797 -85.4939 311° West 464 534 30,300 -2,468 Descending Indianapolis Center
Mon 04:43:48 PM 41.2553 -85.6694 300° West 471 542 27,500 -2,419 Descending Indianapolis Center
Mon 04:44:50 PM 41.2681 -85.8347 276° West 452 520 25,300 -1,268 Descending Indianapolis Center
Mon 04:45:51 PM 41.2808 -85.9936 276° West 438 504 24,900 -732 Descending Indianapolis Center
Mon 04:46:53 PM 41.3269 -86.1358 293° West 423 487 23,800 -1,306 Descending Indianapolis Center
Mon 04:47:55 PM 41.3717 -86.2783 293° West 418 481 22,200 -2,280 Descending Indianapolis Center
Mon 04:49:23 PM 41.4383 -86.4847 293° West 396 456 18,100 -2,720 Descending Chicago Center
Mon 04:50:25 PM 41.4794 -86.6086 294° West 370 426 15,400 -2,274 Descending Chicago Center
Mon 04:51:27 PM 41.5525 -86.6933 319° Northwest 351 404 13,400 -1,597 Descending Chicago Center
Mon 04:52:29 PM 41.6358 -86.7739 324° Northwest 341 392 12,100 -629 Descending Chicago Center
Mon 04:53:31 PM 41.7322 -86.8042 347° North 367 422 12,100  Level Chicago Center
Mon 04:54:33 PM 41.8300 -86.8219 352° North 360 414 12,100 -629 Level Chicago Center
Mon 04:55:35 PM 41.9122 -86.9100 321° Northwest 333 383 10,800 -1,016 Descending Chicago Center
Mon 04:56:37 PM 41.9581 -87.0156 300° West 331 381 10,000 -387 Descending Chicago Center
Mon 04:57:39 PM 41.9825 -87.1267 287° West 317 365 10,000 -439 Level Chicago Center
Mon 04:58:40 PM 41.9828 -87.2253 270° West 272 313 9,100 -1,220 Descending Chicago Center
Mon 04:59:42 PM 41.9833 -87.3214 270° West 261 300 7,500 -1,016 Descending Chicago Center
Mon 05:00:44 PM 41.9817 -87.4344 269° West 254 292 7,000 -677 Descending Chicago Center
Mon 05:01:46 PM 41.9828 -87.5275 271° West 252 290 6,100 -1,258 Descending Chicago Center
Mon 05:02:48 PM 41.9828 -87.6214 270° West 254 292 4,400 -1,113 Descending Chicago Center
Mon 05:03:50 PM 41.9847 -87.7075 272° West 241 277 3,800 -1,073 Descending Chicago Center
Mon 05:04:51 PM 41.9842 -87.7747 269° West 208 239 2,200 -1,220 Descending Chicago Center
Mon 05:05:53 PM 41.9839 -87.8469 270° West 182 209 1,300 -532 Descending Chicago Center
Mon 05:06:55 PM 41.9839 -87.9036 270° West 178 205 1,100 -194 Descending Chicago Center
Mon 05:08:00 PM 41.9817 -87.9067 225° Southwest  Level Estimated

Login

Don't have an account? Register now (free) for customized features, flight alerts, and more!